Time;durP1;ratioP1;P1;durP2;ratioP2;P2;SDS_P1;SDS_P2;PMS_P1;PMS_P2;Temp;Humidity;BMP_temperature;BMP_pressure;BME280_temperature;BME280_humidity;BME280_pressure;Samples;Min_cycle;Max_cycle;Signal;HPM_P1;HPM_P2
2022/10/23 00:01:36;;;;;;;5.50;2.00;;;;;;;17.81;59.97;100461.27;106121;1304;21959;-64
2022/10/23 00:04:09;;;;;;;6.80;1.80;;;;;;;17.83;59.88;100463.88;106227;1299;21973;-65
2022/10/23 00:06:35;;;;;;;9.30;2.20;;;;;;;17.83;60.30;100466.00;106186;1303;21988;-64
2022/10/23 00:09:01;;;;;;;7.80;2.60;;;;;;;17.81;60.75;100465.17;106250;1300;21954;-64
2022/10/23 00:11:28;;;;;;;12.10;2.40;;;;;;;17.82;60.53;100466.04;106261;1297;22001;-64
2022/10/23 00:13:56;;;;;;;8.00;2.10;;;;;;;17.83;60.15;100458.34;106234;1299;21962;-65
2022/10/23 00:16:24;;;;;;;8.00;2.20;;;;;;;17.85;60.13;100450.48;106247;1302;21968;-64
2022/10/23 00:18:49;;;;;;;8.90;2.30;;;;;;;17.87;59.99;100439.38;106157;1303;21962;-66
2022/10/23 00:21:15;;;;;;;9.10;2.30;;;;;;;17.88;60.56;100439.89;106156;1303;21953;-64
2022/10/23 00:23:43;;;;;;;7.90;2.30;;;;;;;17.87;60.56;100441.67;106201;1303;21959;-64
2022/10/23 00:26:15;;;;;;;8.20;1.80;;;;;;;17.86;60.16;100428.79;106115;1303;21969;-64
2022/10/23 00:28:42;;;;;;;6.60;2.10;;;;;;;17.84;60.42;100423.02;106198;1303;21993;-66
2022/10/23 00:31:08;;;;;;;12.10;2.80;;;;;;;17.84;60.26;100419.10;106291;1303;21953;-66
2022/10/23 00:33:34;;;;;;;8.90;2.40;;;;;;;17.85;60.62;100416.58;106158;1299;21974;-64
2022/10/23 00:36:02;;;;;;;8.50;2.50;;;;;;;17.89;60.46;100414.98;106301;1304;21963;-65
2022/10/23 00:38:28;;;;;;;7.60;2.90;;;;;;;17.90;60.63;100414.40;106114;1298;22002;-65
2022/10/23 00:40:54;;;;;;;8.10;2.30;;;;;;;17.88;60.36;100416.60;106176;1303;21962;-66
2022/10/23 00:43:21;;;;;;;6.80;2.40;;;;;;;17.83;60.34;100412.40;106259;1304;21967;-66
2022/10/23 00:45:47;;;;;;;5.60;1.80;;;;;;;17.80;60.32;100400.45;106312;1303;21994;-65
2022/10/23 00:48:13;;;;;;;8.90;2.30;;;;;;;17.81;60.21;100391.90;106216;1303;21954;-65
2022/10/23 00:50:38;;;;;;;8.10;2.00;;;;;;;17.82;60.51;100382.96;106280;1304;21999;-65
2022/10/23 00:53:04;;;;;;;9.20;2.30;;;;;;;17.83;60.49;100390.90;106225;1304;21964;-65
2022/10/23 00:55:30;;;;;;;5.90;2.20;;;;;;;17.84;60.75;100395.50;106120;1304;21962;-64
2022/10/23 00:57:56;;;;;;;5.90;2.10;;;;;;;17.84;60.54;100393.87;105848;1303;21990;-64
2022/10/23 01:00:30;;;;;;;7.00;2.10;;;;;;;17.85;60.37;100395.62;106179;1303;21932;-64
2022/10/23 01:02:56;;;;;;;7.50;2.20;;;;;;;17.85;60.89;100403.24;106165;1303;21961;-65
2022/10/23 01:05:29;;;;;;;6.00;2.00;;;;;;;17.84;61.63;100397.97;106199;1304;21956;-65
2022/10/23 01:08:06;;;;;;;8.70;2.30;;;;;;;17.86;60.83;100385.28;106393;1304;23095;-65
2022/10/23 01:10:40;;;;;;;9.40;1.80;;;;;;;17.92;60.29;100384.86;106192;1304;21974;-64
2022/10/23 01:13:14;;;;;;;11.50;2.30;;;;;;;17.94;60.42;100384.77;106230;1303;21969;-64
2022/10/23 01:15:42;;;;;;;10.50;2.40;;;;;;;17.96;60.16;100377.05;106164;1304;21995;-65
2022/10/23 01:18:15;;;;;;;8.20;2.20;;;;;;;17.97;60.15;100377.54;106142;1303;21975;-66
2022/10/23 01:20:57;;;;;;;10.50;2.50;;;;;;;17.96;59.99;100364.28;106095;1304;21962;-64
2022/10/23 01:23:30;;;;;;;9.30;2.30;;;;;;;17.91;59.91;100348.66;106157;1303;21963;-64
2022/10/23 01:26:02;;;;;;;7.00;2.10;;;;;;;17.93;59.76;100342.91;106163;1304;21966;-65
2022/10/23 01:28:30;;;;;;;8.00;2.60;;;;;;;17.98;59.62;100345.20;106245;1303;21967;-65
2022/10/23 01:30:57;;;;;;;8.20;2.20;;;;;;;17.94;59.71;100343.40;106199;1303;21969;-65
2022/10/23 01:33:26;;;;;;;8.10;1.70;;;;;;;17.91;59.72;100336.95;106164;1304;21962;-65
2022/10/23 01:36:03;;;;;;;8.00;2.50;;;;;;;17.89;59.87;100332.65;106122;1303;21957;-64
2022/10/23 01:38:45;;;;;;;8.30;2.40;;;;;;;17.87;60.20;100331.48;106058;1305;21972;-65
2022/10/23 01:41:13;;;;;;;7.30;2.20;;;;;;;17.86;60.24;100332.41;106020;1303;21959;-65
2022/10/23 01:43:43;;;;;;;7.00;2.30;;;;;;;17.86;59.87;100331.71;106169;1303;22024;-64
2022/10/23 01:46:11;;;;;;;7.10;1.90;;;;;;;17.86;59.88;100328.85;106199;1302;22087;-65
2022/10/23 01:48:38;;;;;;;10.80;2.10;;;;;;;17.86;59.93;100334.17;105960;1304;322528;-65
2022/10/23 01:51:07;;;;;;;10.30;2.50;;;;;;;17.87;60.82;100350.66;105791;1301;21977;-65
2022/10/23 01:53:37;;;;;;;5.60;2.10;;;;;;;17.88;60.97;100353.59;106254;1303;23730;-64
2022/10/23 01:56:03;;;;;;;8.30;2.20;;;;;;;17.80;60.96;100353.23;106248;1293;23094;-64
2022/10/23 01:58:29;;;;;;;7.10;2.20;;;;;;;17.77;60.86;100346.80;105813;1297;21970;-64
2022/10/23 02:00:55;;;;;;;7.60;2.50;;;;;;;17.76;60.78;100342.59;106059;1304;21959;-65
2022/10/23 02:03:21;;;;;;;7.50;2.10;;;;;;;17.76;60.40;100339.93;106134;1304;21956;-65
2022/10/23 02:05:47;;;;;;;8.00;2.30;;;;;;;17.75;60.89;100347.92;106054;1303;21964;-65
2022/10/23 02:08:13;;;;;;;10.50;2.50;;;;;;;17.76;61.17;100352.89;106109;1304;21967;-64
2022/10/23 02:10:39;;;;;;;7.20;2.00;;;;;;;17.77;60.71;100348.59;106194;1304;22055;-63
2022/10/23 02:13:08;;;;;;;5.90;2.40;;;;;;;17.81;60.49;100350.71;106124;1303;21961;-65
2022/10/23 02:15:43;;;;;;;8.80;2.50;;;;;;;17.84;60.96;100351.28;106369;1303;24372;-65
2022/10/23 02:18:44;;;;;;;7.30;2.10;;;;;;;17.83;60.71;100344.95;106224;1303;21963;-64
2022/10/23 02:21:15;;;;;;;5.90;1.90;;;;;;;17.82;60.92;100348.19;106201;1304;22045;-64
2022/10/23 02:23:53;;;;;;;8.80;2.50;;;;;;;17.84;60.53;100345.77;106170;1304;21983;-64
2022/10/23 02:26:23;;;;;;;6.80;2.20;;;;;;;17.85;60.45;100348.08;106241;1304;23145;-65
2022/10/23 02:28:53;;;;;;;6.60;2.00;;;;;;;17.82;60.50;100350.14;106138;1303;21969;-66
2022/10/23 02:31:20;;;;;;;7.00;2.20;;;;;;;17.82;60.34;100351.92;106681;1303;21965;-66
2022/10/23 02:33:46;;;;;;;7.30;2.20;;;;;;;17.82;60.50;100355.13;106162;1304;22005;-64
2022/10/23 02:36:13;;;;;;;9.80;2.40;;;;;;;17.79;61.07;100357.70;106233;1304;21973;-64
2022/10/23 02:38:40;;;;;;;7.00;2.30;;;;;;;17.79;60.80;100350.08;106275;1304;21965;-64
2022/10/23 02:41:11;;;;;;;7.90;2.00;;;;;;;17.73;60.97;100349.47;106362;1304;21957;-66
2022/10/23 02:43:42;;;;;;;8.50;2.30;;;;;;;17.69;60.92;100348.20;106155;1304;21960;-65
2022/10/23 02:46:10;;;;;;;7.90;2.30;;;;;;;17.66;61.05;100359.50;106226;1303;21953;-66
2022/10/23 02:49:07;;;;;;;4.80;1.90;;;;;;;17.63;61.28;100362.46;106196;1304;21969;-65
2022/10/23 02:52:13;;;;;;;6.90;2.30;;;;;;;17.65;60.53;100364.70;106092;1304;21968;-66
2022/10/23 02:55:04;;;;;;;8.90;2.40;;;;;;;17.65;60.63;100371.06;105918;1304;22001;-65
2022/10/23 02:57:32;;;;;;;7.50;2.50;;;;;;;17.67;60.47;100370.63;106211;1304;21960;-65
2022/10/23 03:00:03;;;;;;;9.20;2.70;;;;;;;17.68;60.47;100370.05;106204;1304;21959;-64
2022/10/23 03:02:36;;;;;;;10.40;3.00;;;;;;;17.68;60.17;100375.56;106199;1303;21955;-64
2022/10/23 03:05:03;;;;;;;7.50;2.30;;;;;;;17.68;60.15;100382.30;106148;1304;23093;-64
2022/10/23 03:07:30;;;;;;;8.10;2.60;;;;;;;17.66;60.25;100385.02;106201;1304;22764;-66
2022/10/23 03:09:56;;;;;;;7.70;2.70;;;;;;;17.64;60.45;100378.02;105963;1304;21960;-66
2022/10/23 03:12:28;;;;;;;6.10;2.30;;;;;;;17.63;60.17;100373.65;106158;1304;21972;-64
2022/10/23 03:14:53;;;;;;;9.20;3.30;;;;;;;17.61;60.81;100366.81;106160;1304;21953;-66
2022/10/23 03:17:19;;;;;;;5.20;2.40;;;;;;;17.59;60.34;100363.33;106170;1303;21992;-65
2022/10/23 03:19:45;;;;;;;10.30;2.80;;;;;;;17.54;60.46;100361.59;106173;1301;21976;-65
2022/10/23 03:22:12;;;;;;;7.70;2.90;;;;;;;17.52;60.60;100367.85;106127;1303;21984;-64
2022/10/23 03:24:39;;;;;;;7.20;2.70;;;;;;;17.53;60.15;100363.23;106103;1304;21968;-64
2022/10/23 03:27:05;;;;;;;8.80;2.50;;;;;;;17.53;60.03;100369.60;106237;1303;21850;-65
2022/10/23 03:29:30;;;;;;;9.00;3.10;;;;;;;17.53;60.28;100380.61;106082;1303;21968;-65
2022/10/23 03:31:56;;;;;;;9.90;2.90;;;;;;;17.50;60.30;100393.14;106068;1304;21961;-65
2022/10/23 03:34:22;;;;;;;9.80;2.80;;;;;;;17.47;60.05;100386.73;106066;1303;21988;-65
2022/10/23 03:36:49;;;;;;;10.40;3.10;;;;;;;17.47;60.12;100385.84;106097;1299;22157;-64
2022/10/23 03:39:15;;;;;;;11.40;2.80;;;;;;;17.46;60.01;100399.55;106099;1304;21968;-64
2022/10/23 03:41:42;;;;;;;8.30;2.80;;;;;;;17.44;60.28;100396.63;106055;1307;22098;-65
2022/10/23 03:44:08;;;;;;;7.40;3.70;;;;;;;17.39;60.21;100389.89;106066;1303;21954;-64
2022/10/23 03:46:34;;;;;;;6.80;3.50;;;;;;;17.33;60.43;100390.13;106113;1304;21964;-66
2022/10/23 03:49:00;;;;;;;8.90;3.80;;;;;;;17.29;60.26;100386.17;106171;1306;21967;-66
2022/10/23 03:51:26;;;;;;;9.90;3.40;;;;;;;17.28;60.24;100387.67;106145;1308;23727;-66
2022/10/23 03:53:53;;;;;;;8.90;4.00;;;;;;;17.23;60.46;100393.50;106141;1306;21962;-66
2022/10/23 03:56:18;;;;;;;6.70;3.60;;;;;;;17.18;60.78;100396.94;106175;1306;21988;-66
2022/10/23 03:58:44;;;;;;;7.70;4.10;;;;;;;17.12;60.62;100397.14;106184;1308;22052;-66
2022/10/23 04:01:10;;;;;;;10.00;4.60;;;;;;;17.08;60.63;100396.77;106102;1308;21954;-67
2022/10/23 04:03:36;;;;;;;10.50;4.40;;;;;;;17.05;60.57;100397.76;105729;1306;21956;-67
2022/10/23 04:06:02;;;;;;;10.10;4.40;;;;;;;17.04;60.40;100400.28;106137;1305;22001;-67
2022/10/23 04:08:32;;;;;;;9.00;3.60;;;;;;;16.98;60.46;100400.36;106205;1303;21953;-65
2022/10/23 04:10:59;;;;;;;7.20;3.60;;;;;;;16.94;60.30;100400.29;106126;1302;21964;-66
2022/10/23 04:13:25;;;;;;;8.40;4.20;;;;;;;16.94;60.31;100398.34;106112;1306;21971;-67
2022/10/23 04:15:52;;;;;;;11.20;4.50;;;;;;;16.96;60.19;100392.79;106116;1308;21965;-67
2022/10/23 04:18:18;;;;;;;8.20;4.40;;;;;;;17.01;59.97;100391.73;106137;1306;23486;-65
2022/10/23 04:20:47;;;;;;;11.50;4.70;;;;;;;17.04;59.83;100391.09;106192;1306;21985;-65
2022/10/23 04:23:14;;;;;;;10.90;4.50;;;;;;;17.01;59.98;100392.60;106232;1308;21947;-67
2022/10/23 04:25:39;;;;;;;11.00;4.50;;;;;;;17.01;59.84;100389.76;106198;1305;21955;-64
2022/10/23 04:28:05;;;;;;;15.00;5.20;;;;;;;17.00;59.81;100386.80;106114;1304;21958;-66
2022/10/23 04:30:31;;;;;;;8.10;4.30;;;;;;;17.02;59.63;100384.05;106151;1304;22005;-67
2022/10/23 04:32:57;;;;;;;13.50;6.00;;;;;;;17.02;59.57;100385.99;106115;1299;21954;-68
2022/10/23 04:35:23;;;;;;;11.30;5.70;;;;;;;17.00;59.48;100387.14;106146;1304;21980;-64
2022/10/23 04:37:48;;;;;;;11.40;4.90;;;;;;;16.99;59.47;100394.13;106196;1304;21983;-63
2022/10/23 04:40:15;;;;;;;10.90;5.30;;;;;;;16.96;59.51;100389.08;106211;1304;21962;-64
2022/10/23 04:42:41;;;;;;;10.40;5.40;;;;;;;16.92;59.58;100385.48;106279;1304;21964;-68
2022/10/23 04:45:07;;;;;;;10.10;4.90;;;;;;;16.88;59.54;100384.21;106230;1304;21973;-63
2022/10/23 04:47:33;;;;;;;13.70;6.20;;;;;;;16.84;59.68;100384.36;106131;1305;23631;-63
2022/10/23 04:49:58;;;;;;;13.90;5.30;;;;;;;16.81;59.83;100387.66;106358;1304;21974;-68
2022/10/23 04:52:24;;;;;;;9.20;5.40;;;;;;;16.77;59.77;100385.01;106239;1304;21949;-68
2022/10/23 04:54:50;;;;;;;11.00;4.90;;;;;;;16.73;59.78;100386.39;106088;1304;21960;-68
2022/10/23 04:57:16;;;;;;;12.60;5.90;;;;;;;16.68;59.83;100388.69;106095;1304;21950;-62
2022/10/23 04:59:42;;;;;;;11.30;5.90;;;;;;;16.64;60.12;100398.59;106182;1304;21999;-68
2022/10/23 05:02:08;;;;;;;11.00;6.60;;;;;;;16.58;60.09;100400.73;106130;1304;21955;-62
2022/10/23 05:04:35;;;;;;;11.80;5.80;;;;;;;16.54;60.03;100400.73;106171;1303;21965;-62
2022/10/23 05:07:01;;;;;;;9.80;5.40;;;;;;;16.52;59.93;100405.59;106152;1304;21962;-69
2022/10/23 05:09:27;;;;;;;10.90;6.10;;;;;;;16.50;59.91;100410.06;106110;1304;21965;-62
2022/10/23 05:11:54;;;;;;;14.30;6.80;;;;;;;16.50;59.87;100414.48;106088;1304;21962;-69
2022/10/23 05:14:21;;;;;;;14.20;6.70;;;;;;;16.47;60.01;100417.61;106136;1303;21976;-62
2022/10/23 05:17:23;;;;;;;14.40;7.20;;;;;;;16.41;59.98;100414.83;106116;1303;21967;-69
2022/10/23 05:19:53;;;;;;;12.30;6.60;;;;;;;16.37;59.92;100417.45;106149;1304;21954;-69
2022/10/23 05:22:27;;;;;;;10.10;6.20;;;;;;;16.34;59.92;100419.67;106101;1303;21986;-62
2022/10/23 05:24:53;;;;;;;9.30;5.70;;;;;;;16.31;59.96;100424.20;106172;1303;21969;-62
2022/10/23 05:27:18;;;;;;;9.80;6.20;;;;;;;16.29;59.97;100425.01;106105;1303;21981;-62
2022/10/23 05:29:45;;;;;;;12.10;6.80;;;;;;;16.24;59.91;100426.05;106156;1303;22038;-62
2022/10/23 05:32:12;;;;;;;10.00;6.10;;;;;;;16.19;59.83;100423.36;106157;1304;21967;-69
2022/10/23 05:34:39;;;;;;;11.40;6.60;;;;;;;16.19;59.82;100425.16;106258;1304;21963;-69
2022/10/23 05:37:06;;;;;;;10.30;5.50;;;;;;;16.11;59.98;100428.64;106230;1300;21985;-61
2022/10/23 05:39:32;;;;;;;10.10;5.70;;;;;;;16.05;60.07;100431.31;106158;1303;21958;-68
2022/10/23 05:41:59;;;;;;;13.50;6.50;;;;;;;16.02;60.06;100424.85;106100;1304;22177;-61
2022/10/23 05:44:24;;;;;;;13.20;6.70;;;;;;;16.01;59.99;100431.61;106140;1303;21968;-62
2022/10/23 05:46:50;;;;;;;12.80;7.00;;;;;;;15.94;60.13;100435.22;106087;1303;21967;-68
2022/10/23 05:49:19;;;;;;;12.10;6.10;;;;;;;15.90;60.27;100437.48;106018;1304;23674;-61
2022/10/23 05:51:45;;;;;;;12.70;6.20;;;;;;;15.86;60.44;100444.48;105987;1304;21979;-61
2022/10/23 05:54:10;;;;;;;11.30;6.70;;;;;;;15.84;60.50;100446.84;105988;1304;21923;-68
2022/10/23 05:56:40;;;;;;;15.10;7.60;;;;;;;15.82;60.46;100443.02;106104;1303;21958;-67
2022/10/23 05:59:07;;;;;;;13.60;6.50;;;;;;;15.81;60.48;100436.50;106043;1303;21960;-61
2022/10/23 06:01:33;;;;;;;11.90;6.10;;;;;;;15.80;60.50;100434.95;106190;1303;21957;-61
2022/10/23 06:03:59;;;;;;;12.60;6.80;;;;;;;15.80;60.42;100437.95;106168;1299;21964;-62
2022/10/23 06:06:26;;;;;;;8.10;5.20;;;;;;;15.82;60.46;100440.88;106214;1304;22017;-68
2022/10/23 06:08:52;;;;;;;11.10;6.10;;;;;;;15.84;60.55;100443.46;106187;1303;21964;-68
2022/10/23 06:11:18;;;;;;;10.60;6.90;;;;;;;15.83;60.63;100437.66;106118;1303;21963;-68
2022/10/23 06:13:44;;;;;;;9.10;6.90;;;;;;;15.84;60.49;100436.21;106146;1303;21951;-68
2022/10/23 06:16:11;;;;;;;9.90;6.50;;;;;;;15.86;60.47;100436.71;106051;1304;23503;-67
2022/10/23 06:18:37;;;;;;;15.30;7.10;;;;;;;15.88;60.51;100437.55;106108;1303;22010;-62
2022/10/23 06:21:03;;;;;;;8.40;5.60;;;;;;;15.87;60.67;100438.62;106104;1298;21960;-61
2022/10/23 06:23:32;;;;;;;10.80;6.60;;;;;;;15.88;60.63;100438.77;106070;1302;21959;-68
2022/10/23 06:25:58;;;;;;;9.90;6.40;;;;;;;15.88;60.74;100440.91;106128;1303;23708;-61
2022/10/23 06:28:24;;;;;;;10.40;6.60;;;;;;;15.83;60.77;100440.48;106168;1304;21962;-61
2022/10/23 06:30:50;;;;;;;12.50;6.30;;;;;;;15.81;60.68;100447.29;106127;1302;21959;-67
2022/10/23 06:33:16;;;;;;;10.90;6.30;;;;;;;15.80;60.64;100447.14;106164;1303;21986;-61
2022/10/23 06:35:42;;;;;;;9.80;6.60;;;;;;;15.82;60.79;100453.80;106144;1303;21964;-67
2022/10/23 06:38:09;;;;;;;12.40;6.50;;;;;;;15.84;60.56;100461.00;106121;1303;22152;-61
2022/10/23 06:40:36;;;;;;;9.20;6.50;;;;;;;15.80;60.68;100457.23;106061;1303;21976;-61
2022/10/23 06:43:02;;;;;;;8.60;6.30;;;;;;;15.77;60.64;100457.52;106060;1303;22026;-63
2022/10/23 06:45:31;;;;;;;13.20;7.80;;;;;;;15.79;60.64;100453.91;106185;1300;21972;-67
2022/10/23 06:47:57;;;;;;;13.40;7.30;;;;;;;15.77;60.65;100454.67;106112;1303;21968;-62
2022/10/23 06:50:24;;;;;;;10.90;6.70;;;;;;;15.76;60.68;100457.71;106160;1303;21972;-67
2022/10/23 06:52:50;;;;;;;12.30;6.50;;;;;;;15.74;60.67;100459.34;106109;1304;21983;-68
2022/10/23 06:55:17;;;;;;;10.60;7.50;;;;;;;15.73;60.89;100461.52;106151;1303;21972;-67
2022/10/23 06:57:42;;;;;;;12.80;8.20;;;;;;;15.73;60.68;100455.49;106260;1298;21968;-66
2022/10/23 07:00:09;;;;;;;12.40;7.40;;;;;;;15.75;60.79;100452.97;106096;1303;21986;-67
2022/10/23 07:02:35;;;;;;;13.90;7.80;;;;;;;15.77;60.75;100452.72;106184;1301;22448;-67
2022/10/23 07:05:01;;;;;;;11.10;8.10;;;;;;;15.80;61.04;100454.93;106159;1304;21958;-67
2022/10/23 07:07:30;;;;;;;12.40;7.70;;;;;;;15.83;60.96;100455.72;106123;1303;21968;-67
2022/10/23 07:09:56;;;;;;;10.80;7.40;;;;;;;15.85;60.96;100459.38;106034;1303;21988;-66
2022/10/23 07:12:27;;;;;;;12.00;7.60;;;;;;;15.89;61.16;100455.92;106106;1303;21960;-68
2022/10/23 07:14:54;;;;;;;10.70;7.80;;;;;;;15.93;61.16;100455.42;106104;1304;21976;-67
2022/10/23 07:17:19;;;;;;;13.30;9.10;;;;;;;15.97;61.15;100458.47;106057;1303;24321;-67
2022/10/23 07:19:46;;;;;;;13.70;9.10;;;;;;;16.03;61.08;100465.35;106129;1304;21977;-62
2022/10/23 07:22:12;;;;;;;10.70;7.50;;;;;;;16.06;60.94;100468.44;106216;1303;21959;-66
2022/10/23 07:24:39;;;;;;;13.40;9.40;;;;;;;16.09;61.06;100471.35;106175;1304;21981;-63
2022/10/23 07:27:05;;;;;;;15.20;8.90;;;;;;;16.12;61.10;100469.84;106154;1304;22015;-67
2022/10/23 07:29:31;;;;;;;11.70;8.60;;;;;;;16.14;61.02;100463.75;106180;1304;21965;-63
2022/10/23 07:31:59;;;;;;;13.80;10.20;;;;;;;16.15;61.11;100456.44;106196;1303;21962;-63
2022/10/23 07:34:26;;;;;;;14.10;10.40;;;;;;;16.17;61.17;100455.85;106094;1304;23814;-63
2022/10/23 07:36:53;;;;;;;12.90;9.30;;;;;;;16.20;61.17;100462.11;106097;1304;21978;-63
2022/10/23 07:39:21;;;;;;;17.30;9.80;;;;;;;16.23;61.15;100465.40;106072;1302;21986;-63
2022/10/23 07:41:48;;;;;;;13.30;10.10;;;;;;;16.26;61.34;100464.23;106212;1304;21970;-66
2022/10/23 07:44:14;;;;;;;14.50;10.00;;;;;;;16.27;61.53;100471.63;106181;1302;21965;-67
2022/10/23 07:46:40;;;;;;;17.00;11.50;;;;;;;16.29;61.42;100474.03;106116;1303;21974;-62
2022/10/23 07:49:06;;;;;;;18.20;11.80;;;;;;;16.32;61.37;100479.78;106128;1302;21937;-63
2022/10/23 07:51:32;;;;;;;16.50;11.40;;;;;;;16.33;61.39;100475.81;106070;1295;21986;-65
2022/10/23 07:53:57;;;;;;;14.20;11.10;;;;;;;16.36;61.35;100469.89;106063;1303;22092;-64
2022/10/23 07:56:25;;;;;;;18.10;11.00;;;;;;;16.40;61.27;100469.77;106062;1303;21974;-66
2022/10/23 07:58:52;;;;;;;15.20;11.10;;;;;;;16.46;61.27;100468.31;106216;1303;21973;-64
2022/10/23 08:01:41;;;;;;;15.70;11.10;;;;;;;16.53;61.23;100464.34;106298;1298;21965;-67
2022/10/23 08:04:08;;;;;;;17.70;11.20;;;;;;;16.58;61.08;100460.45;106143;1304;21962;-65
2022/10/23 08:06:37;;;;;;;15.10;11.80;;;;;;;16.62;61.24;100455.51;106058;1303;22417;-66
2022/10/23 08:09:05;;;;;;;14.70;11.60;;;;;;;16.67;61.17;100464.19;106101;1303;21964;-65
2022/10/23 08:11:34;;;;;;;16.80;11.20;;;;;;;16.71;61.17;100467.79;106068;1299;21968;-65
2022/10/23 08:14:03;;;;;;;16.30;11.50;;;;;;;16.77;61.06;100474.13;106130;1303;21962;-65
2022/10/23 08:16:33;;;;;;;17.50;12.10;;;;;;;16.77;60.90;100478.53;106155;1303;23152;-66
2022/10/23 08:19:00;;;;;;;15.90;12.10;;;;;;;16.76;60.83;100485.65;106099;1303;21975;-65
2022/10/23 08:21:25;;;;;;;16.30;12.30;;;;;;;16.78;60.67;100490.38;106192;1303;21992;-66
2022/10/23 08:23:55;;;;;;;16.10;12.20;;;;;;;16.79;60.84;100493.88;106088;1304;24118;-64
2022/10/23 08:26:21;;;;;;;15.30;11.40;;;;;;;16.81;60.75;100500.02;106195;1303;21971;-65
2022/10/23 08:28:47;;;;;;;15.90;11.50;;;;;;;16.82;60.61;100503.89;106229;1303;21967;-66
2022/10/23 08:31:15;;;;;;;16.40;12.30;;;;;;;16.76;60.60;100508.34;106099;1303;22003;-65
2022/10/23 08:33:42;;;;;;;16.10;11.70;;;;;;;16.75;60.46;100512.11;106129;1302;22205;-65
2022/10/23 08:36:27;;;;;;;16.90;12.90;;;;;;;16.75;60.50;100513.72;106098;1303;21965;-66
2022/10/23 08:38:54;;;;;;;16.70;11.60;;;;;;;16.72;60.91;100512.20;106148;1303;21981;-67
2022/10/23 08:41:25;;;;;;;13.10;11.30;;;;;;;16.70;60.62;100503.09;106257;1303;24095;-65
2022/10/23 08:44:06;;;;;;;15.50;10.80;;;;;;;16.70;60.66;100505.02;106125;1303;24079;-66
2022/10/23 08:46:36;;;;;;;13.90;10.90;;;;;;;16.71;60.61;100504.98;106052;1303;21954;-67
2022/10/23 08:49:17;;;;;;;14.90;11.20;;;;;;;16.74;60.60;100504.53;106150;1303;21981;-66
2022/10/23 08:51:47;;;;;;;20.10;12.40;;;;;;;16.78;60.50;100503.33;106156;1303;21974;-64
2022/10/23 08:54:20;;;;;;;13.90;10.60;;;;;;;16.83;60.57;100509.70;105991;1303;21984;-64
2022/10/23 08:56:56;;;;;;;15.00;10.60;;;;;;;16.87;60.75;100516.30;106177;1303;21974;-67
2022/10/23 08:59:31;;;;;;;14.40;11.30;;;;;;;16.92;60.66;100522.11;106125;1303;22002;-63
2022/10/23 09:02:07;;;;;;;14.10;11.10;;;;;;;17.00;60.73;100526.14;106119;1303;21971;-64
2022/10/23 09:04:33;;;;;;;13.90;11.70;;;;;;;17.08;60.64;100535.23;106130;1303;21971;-64
2022/10/23 09:07:04;;;;;;;13.50;11.00;;;;;;;17.16;60.49;100540.81;106117;1304;21962;-65
2022/10/23 09:09:53;;;;;;;14.20;10.60;;;;;;;17.24;60.44;100544.23;106152;1303;21970;-64
2022/10/23 09:12:23;;;;;;;14.60;9.90;;;;;;;17.33;60.49;100542.98;106126;1303;21966;-66
2022/10/23 09:15:02;;;;;;;14.10;11.60;;;;;;;17.41;60.37;100544.30;106128;1303;22064;-64
2022/10/23 09:17:30;;;;;;;17.80;12.00;;;;;;;17.52;60.59;100547.27;106169;1302;22030;-66
2022/10/23 09:20:12;;;;;;;13.60;10.80;;;;;;;17.67;60.56;100549.17;106206;1303;21983;-65
2022/10/23 09:22:40;;;;;;;16.40;11.80;;;;;;;17.81;60.20;100558.52;106153;1303;21965;-65
2022/10/23 09:25:10;;;;;;;14.00;10.90;;;;;;;17.88;59.96;100556.67;106051;1303;21970;-65
2022/10/23 09:27:36;;;;;;;;;;;;;;;17.94;59.75;100554.64;107278;1303;21933;-64
2022/10/23 09:30:02;;;;;;;15.30;11.80;;;;;;;17.96;59.53;100556.53;106988;1303;21968;-68
2022/10/23 09:32:36;;;;;;;14.70;11.90;;;;;;;17.96;59.51;100553.15;105979;1304;21962;-67
2022/10/23 09:35:02;;;;;;;16.60;11.50;;;;;;;18.01;59.66;100556.16;106181;1303;21965;-65
2022/10/23 09:37:31;;;;;;;14.70;11.10;;;;;;;18.08;59.48;100555.18;106152;1298;24443;-66
2022/10/23 09:40:17;;;;;;;15.20;11.20;;;;;;;18.16;59.54;100555.42;106186;1303;21961;-67
2022/10/23 09:42:54;;;;;;;15.90;11.00;;;;;;;18.25;59.43;100560.16;106132;1303;21964;-67
2022/10/23 09:45:22;;;;;;;15.70;10.80;;;;;;;18.30;59.10;100564.21;106163;1302;21966;-66
2022/10/23 09:47:50;;;;;;;14.70;11.10;;;;;;;18.34;59.06;100569.58;106118;1304;21962;-67
2022/10/23 09:50:19;;;;;;;12.80;10.00;;;;;;;18.35;58.91;100571.83;106156;1304;21969;-67
2022/10/23 09:52:44;;;;;;;13.60;11.90;;;;;;;18.35;58.84;100565.45;106206;1302;21976;-68
2022/10/23 09:55:22;;;;;;;14.00;10.20;;;;;;;18.37;59.01;100564.85;106108;1302;21981;-69
2022/10/23 09:57:49;;;;;;;11.30;9.60;;;;;;;18.45;59.12;100564.17;106055;1304;23663;-68
2022/10/23 10:00:17;;;;;;;15.80;9.50;;;;;;;18.53;59.02;100565.04;105794;1297;21962;-63
2022/10/23 10:02:57;;;;;;;17.20;9.90;;;;;;;18.64;58.85;100564.20;106138;1303;22017;-66
2022/10/23 10:05:25;;;;;;;14.20;9.50;;;;;;;18.77;58.86;100562.96;106164;1302;21963;-64
2022/10/23 10:07:58;;;;;;;12.70;8.00;;;;;;;18.88;58.70;100558.92;106372;1303;21963;-67
2022/10/23 10:10:25;;;;;;;10.30;8.00;;;;;;;19.03;58.55;100558.14;106376;1304;21990;-68
2022/10/23 10:12:57;;;;;;;11.00;7.50;;;;;;;19.18;58.26;100558.35;106398;1304;21971;-67
2022/10/23 10:15:34;;;;;;;8.80;6.90;;;;;;;19.28;57.53;100555.39;106275;1302;21960;-68
2022/10/23 10:18:19;;;;;;;8.90;6.90;;;;;;;19.46;57.29;100558.13;106001;1307;21980;-66
2022/10/23 10:20:48;;;;;;;7.80;5.70;;;;;;;19.72;56.99;100552.63;105875;1306;21956;-66
2022/10/23 10:23:44;;;;;;;10.00;7.00;;;;;;;19.97;56.68;100549.13;106113;1303;21941;-65
2022/10/23 10:26:21;;;;;;;8.80;6.90;;;;;;;20.26;56.53;100548.30;106201;1303;21956;-64
2022/10/23 10:29:32;;;;;;;13.80;9.80;;;;;;;20.53;56.23;100540.85;106126;1303;21981;-67
2022/10/23 10:32:23;;;;;;;13.30;10.00;;;;;;;20.87;56.15;100544.66;106103;1303;21960;-68
2022/10/23 10:35:08;;;;;;;13.00;9.80;;;;;;;21.07;55.12;100540.40;106072;1303;24317;-65
2022/10/23 10:38:01;;;;;;;9.50;8.40;;;;;;;21.11;54.08;100540.91;106143;1303;22045;-66
2022/10/23 10:40:30;;;;;;;14.60;10.20;;;;;;;21.17;54.31;100548.95;106123;1303;23662;-67
2022/10/23 10:43:24;;;;;;;20.30;15.30;;;;;;;21.25;54.41;100549.05;106150;1302;21961;-67
2022/10/23 10:46:12;;;;;;;12.10;9.40;;;;;;;21.34;54.25;100544.13;106077;1303;21969;-67
2022/10/23 10:48:46;;;;;;;18.00;16.20;;;;;;;21.40;53.59;100539.90;106071;1303;21982;-67
2022/10/23 10:51:31;;;;;;;32.40;21.50;;;;;;;21.43;53.40;100537.05;106181;1301;22190;-67
2022/10/23 10:54:03;;;;;;;18.80;14.00;;;;;;;21.51;53.70;100540.15;106099;1303;21966;-67
2022/10/23 10:56:30;;;;;;;21.50;16.70;;;;;;;21.58;53.24;100534.05;106139;1303;23383;-66
2022/10/23 10:59:01;;;;;;;17.50;10.60;;;;;;;21.67;52.98;100532.14;106137;1303;21981;-67
2022/10/23 11:01:40;;;;;;;16.00;13.30;;;;;;;21.72;52.65;100530.65;106151;1303;21954;-67
2022/10/23 11:04:27;;;;;;;17.20;11.70;;;;;;;21.74;52.54;100532.50;106145;1299;21954;-66
2022/10/23 11:06:52;;;;;;;11.60;9.60;;;;;;;21.76;52.86;100531.65;106107;1303;21964;-67
2022/10/23 11:09:26;;;;;;;12.60;8.80;;;;;;;21.72;52.46;100529.59;106131;1303;21971;-67
2022/10/23 11:11:52;;;;;;;29.90;23.50;;;;;;;21.50;51.84;100538.42;106166;1303;21966;-67
2022/10/23 11:14:21;;;;;;;23.20;18.30;;;;;;;21.32;52.12;100540.48;106095;1303;21970;-67
2022/10/23 11:16:51;;;;;;;21.40;18.50;;;;;;;21.15;52.43;100543.54;106208;1303;21970;-67
2022/10/23 11:19:29;;;;;;;16.00;12.90;;;;;;;20.98;52.89;100539.98;106173;1303;21973;-67
2022/10/23 11:22:03;;;;;;;14.00;10.70;;;;;;;20.91;52.65;100541.98;106183;1302;21992;-65